createdAt,value
2022-11-10T00:02:06.881Z,101057.00
2022-11-10T00:04:52.079Z,101060.28
2022-11-10T00:07:37.680Z,101065.47
2022-11-10T00:10:23.644Z,101063.56
2022-11-10T00:13:08.848Z,101070.38
2022-11-10T00:16:13.131Z,101075.25
2022-11-10T00:18:58.485Z,101077.16
2022-11-10T00:21:43.674Z,101080.94
2022-11-10T00:24:29.030Z,101082.31
2022-11-10T00:27:14.840Z,101089.34
2022-11-10T00:30:00.519Z,101084.44
2022-11-10T00:32:48.221Z,101094.25
2022-11-10T00:35:33.074Z,101087.47
2022-11-10T00:38:18.211Z,101094.53
2022-11-10T00:41:04.838Z,101098.28
2022-11-10T00:43:49.680Z,101108.03
2022-11-10T00:46:34.940Z,101099.38
2022-11-10T00:49:20.062Z,101094.47
2022-11-10T00:52:05.841Z,101107.22
2022-11-10T00:54:51.038Z,101112.06
2022-11-10T00:57:36.307Z,101116.94
2022-11-10T01:00:21.670Z,101119.97
2022-11-10T01:03:07.457Z,101122.63
2022-11-10T01:05:52.339Z,101119.38
2022-11-10T01:08:38.300Z,101124.53
2022-11-10T01:11:26.184Z,101123.16
2022-11-10T01:14:11.223Z,101122.06
2022-11-10T01:16:56.108Z,101128.03
2022-11-10T01:19:42.357Z,101131.78
2022-11-10T01:22:27.410Z,101138.31
2022-11-10T01:25:12.924Z,101140.78
2022-11-10T01:27:58.008Z,101142.91
2022-11-10T01:30:43.133Z,101145.09
2022-11-10T01:33:28.709Z,101152.94
2022-11-10T01:36:13.792Z,101156.41
2022-11-10T01:38:58.648Z,101149.88
2022-11-10T01:41:43.473Z,101155.88
2022-11-10T01:44:28.768Z,101151.19
2022-11-10T01:47:14.083Z,101157.25
2022-11-10T01:49:59.051Z,101166.72
2022-11-10T01:52:48.717Z,101159.59
2022-11-10T01:55:36.211Z,101168.56
2022-11-10T01:58:34.005Z,101170.63
2022-11-10T02:01:19.327Z,101174.16
2022-11-10T02:04:11.334Z,101177.13
2022-11-10T02:06:56.984Z,101188.81
2022-11-10T02:09:42.413Z,101182.59
2022-11-10T02:12:39.052Z,101182.25
2022-11-10T02:15:24.453Z,101183.63
2022-11-10T02:18:09.893Z,101193.22
2022-11-10T02:20:55.035Z,101180.16
2022-11-10T02:23:40.089Z,101180.88
2022-11-10T02:26:28.932Z,101188.22
2022-11-10T02:29:15.384Z,101191.50
2022-11-10T02:32:00.217Z,101194.28
2022-11-10T02:34:45.225Z,101200.34
2022-11-10T02:37:30.235Z,101198.19
2022-11-10T02:40:15.605Z,101198.66
2022-11-10T02:43:02.549Z,101204.41
2022-11-10T02:45:47.670Z,101207.75
2022-11-10T02:48:32.718Z,101215.00
2022-11-10T02:51:18.143Z,101219.53
2022-11-10T02:54:03.462Z,101215.41
2022-11-10T02:56:48.562Z,101222.03
2022-11-10T02:59:33.469Z,101224.13
2022-11-10T03:02:18.734Z,101220.53
2022-11-10T03:05:05.340Z,101225.66
2022-11-10T03:07:56.713Z,101234.31
2022-11-10T03:10:41.807Z,101236.28
2022-11-10T03:13:35.681Z,101242.97
2022-11-10T03:16:31.644Z,101241.06
2022-11-10T03:19:16.551Z,101250.78
2022-11-10T03:22:02.486Z,101246.13
2022-11-10T03:24:47.655Z,101259.81
2022-11-10T03:27:32.914Z,101253.31
2022-11-10T03:30:17.948Z,101265.22
2022-11-10T03:33:03.080Z,101261.66
2022-11-10T03:35:48.506Z,101259.25
2022-11-10T03:38:33.497Z,101266.22
2022-11-10T03:41:20.436Z,101264.00
2022-11-10T03:44:06.386Z,101279.13
2022-11-10T03:46:51.827Z,101278.50
2022-11-10T03:49:37.384Z,101275.97
2022-11-10T03:52:22.223Z,101283.31
2022-11-10T03:55:07.857Z,101283.50
2022-11-10T03:57:52.910Z,101293.97
2022-11-10T04:00:38.403Z,101291.31
2022-11-10T04:03:24.086Z,101294.91
2022-11-10T04:06:29.823Z,101304.44
2022-11-10T04:09:14.980Z,101311.69
2022-11-10T04:12:23.678Z,101301.28
2022-11-10T04:15:31.638Z,101304.75
2022-11-10T04:18:24.680Z,101309.66
2022-11-10T04:21:12.140Z,101305.81
2022-11-10T04:23:57.133Z,101319.81
2022-11-10T04:26:43.006Z,101318.56
2022-11-10T04:29:27.848Z,101314.28
2022-11-10T04:32:12.812Z,101323.69
2022-11-10T04:34:57.981Z,101330.06
2022-11-10T04:37:42.859Z,101341.00
2022-11-10T04:40:28.034Z,101340.38
2022-11-10T04:43:13.181Z,101356.66
2022-11-10T04:45:58.915Z,101358.59
2022-11-10T04:48:43.764Z,101365.28
2022-11-10T04:51:37.399Z,101362.06
2022-11-10T04:54:22.734Z,101369.19
2022-11-10T04:57:07.843Z,101376.75
2022-11-10T04:59:52.917Z,101383.25
2022-11-10T05:02:39.799Z,101380.63
2022-11-10T05:05:25.320Z,101382.91
2022-11-10T05:08:10.592Z,101384.47
2022-11-10T05:10:55.651Z,101394.03
2022-11-10T05:13:41.178Z,101399.94
2022-11-10T05:16:26.091Z,101402.81
2022-11-10T05:19:11.213Z,101403.78
2022-11-10T05:21:56.464Z,101396.16
2022-11-10T05:24:41.670Z,101402.34
2022-11-10T05:27:26.777Z,101406.25
2022-11-10T05:30:12.073Z,101412.66
2022-11-10T05:32:57.269Z,101417.69
2022-11-10T05:35:42.764Z,101415.56
2022-11-10T05:38:28.026Z,101410.38
2022-11-10T05:41:13.034Z,101408.50
2022-11-10T05:43:58.190Z,101406.59
2022-11-10T05:46:43.085Z,101413.59
2022-11-10T05:49:28.112Z,101409.31
2022-11-10T05:52:13.455Z,101418.09
2022-11-10T05:54:58.396Z,101422.59
2022-11-10T05:57:47.890Z,101431.47
2022-11-10T06:00:33.510Z,101438.16
2022-11-10T06:03:19.648Z,101442.75
2022-11-10T06:06:05.375Z,101448.69
2022-11-10T06:08:50.634Z,101439.38
2022-11-10T06:11:36.117Z,101452.53
2022-11-10T06:14:21.494Z,101463.63
2022-11-10T06:17:06.670Z,101458.69
2022-11-10T06:19:51.840Z,101463.97
2022-11-10T06:22:36.862Z,101474.88
2022-11-10T06:25:22.160Z,101491.75
2022-11-10T06:28:08.668Z,101495.63
2022-11-10T06:30:57.997Z,101511.81
2022-11-10T06:33:43.178Z,101507.09
2022-11-10T06:36:28.060Z,101523.63
2022-11-10T06:39:13.501Z,101535.50
2022-11-10T06:41:58.387Z,101532.47
2022-11-10T06:44:43.313Z,101531.63
2022-11-10T06:47:29.671Z,101529.16
2022-11-10T06:50:15.138Z,101534.25
2022-11-10T06:53:00.594Z,101535.09
2022-11-10T06:55:45.876Z,101544.28
2022-11-10T06:58:31.199Z,101546.75
2022-11-10T07:01:19.999Z,101554.66
2022-11-10T07:04:19.589Z,101550.94
2022-11-10T07:07:06.127Z,101555.31
2022-11-10T07:09:51.197Z,101556.13
2022-11-10T07:12:36.553Z,101561.91
2022-11-10T07:15:21.570Z,101568.78
2022-11-10T07:18:06.480Z,101581.72
2022-11-10T07:20:51.573Z,101577.25
2022-11-10T07:23:36.641Z,101589.38
2022-11-10T07:26:21.970Z,101591.44
2022-11-10T07:29:07.312Z,101596.09
2022-11-10T07:31:53.004Z,101607.78
2022-11-10T07:34:38.535Z,101606.94
2022-11-10T07:37:23.383Z,101613.38
2022-11-10T07:40:08.925Z,101613.88
2022-11-10T07:42:54.025Z,101618.81
2022-11-10T07:45:38.959Z,101632.84
2022-11-10T07:48:24.345Z,101630.22
2022-11-10T07:51:09.597Z,101632.75
2022-11-10T07:53:54.905Z,101637.81
2022-11-10T07:56:39.801Z,101649.72
2022-11-10T07:59:24.988Z,101654.66
2022-11-10T08:02:11.625Z,101659.25
2022-11-10T08:04:56.370Z,101669.00
2022-11-10T08:07:41.685Z,101683.88
2022-11-10T08:10:28.379Z,101691.84
2022-11-10T08:13:13.971Z,101698.75
2022-11-10T08:15:59.535Z,101687.47
2022-11-10T08:18:44.555Z,101691.94
2022-11-10T08:21:29.564Z,101698.81
2022-11-10T08:24:14.648Z,101704.31
2022-11-10T08:26:59.907Z,101704.25
2022-11-10T08:29:44.688Z,101723.53
2022-11-10T08:32:29.976Z,101724.56
2022-11-10T08:35:14.932Z,101726.50
2022-11-10T08:38:15.876Z,101723.34
2022-11-10T08:41:00.777Z,101714.53
2022-11-10T08:43:46.004Z,101717.75
2022-11-10T08:46:31.212Z,101718.13
2022-11-10T08:49:16.090Z,101724.47
2022-11-10T08:52:01.910Z,101728.88
2022-11-10T08:54:46.892Z,101742.81
2022-11-10T08:57:32.163Z,101732.88
2022-11-10T09:00:18.011Z,101735.84
2022-11-10T09:03:14.521Z,101741.16
2022-11-10T09:05:59.645Z,101749.31
2022-11-10T09:08:44.603Z,101755.31
2022-11-10T09:11:30.814Z,101757.31
2022-11-10T09:14:15.743Z,101754.44
2022-11-10T09:17:00.909Z,101756.91
2022-11-10T09:19:46.811Z,101757.44
2022-11-10T09:22:32.106Z,101757.97
2022-11-10T09:25:17.705Z,101757.78
2022-11-10T09:28:02.991Z,101760.84
2022-11-10T09:30:49.763Z,101757.03
2022-11-10T09:33:34.635Z,101770.19
2022-11-10T09:36:19.831Z,101764.94
2022-11-10T09:39:05.222Z,101776.31
2022-11-10T09:41:50.228Z,101778.84
2022-11-10T09:44:51.941Z,101779.19
2022-11-10T09:47:58.219Z,101776.59
2022-11-10T09:50:54.372Z,101776.25
2022-11-10T09:53:48.031Z,101784.88
2022-11-10T09:56:35.344Z,101792.41
2022-11-10T09:59:26.491Z,101784.69
2022-11-10T10:02:35.663Z,101784.72
2022-11-10T10:05:46.474Z,101790.78
2022-11-10T10:08:52.555Z,101794.66
2022-11-10T10:12:03.764Z,101801.44
2022-11-10T10:15:09.393Z,101801.03
2022-11-10T10:18:09.321Z,101799.41
2022-11-10T10:21:12.992Z,101802.53
2022-11-10T10:24:12.661Z,101811.75
2022-11-10T10:27:06.501Z,101798.81
2022-11-10T10:29:52.086Z,101792.34
2022-11-10T10:32:37.241Z,101799.16
2022-11-10T10:35:22.584Z,101797.56
2022-11-10T10:38:36.377Z,101795.44
2022-11-10T10:41:30.347Z,101806.41
2022-11-10T10:44:18.845Z,101821.34
2022-11-10T10:47:05.120Z,101813.75
2022-11-10T10:49:50.738Z,101815.41
2022-11-10T10:52:36.262Z,101815.78
2022-11-10T10:55:28.135Z,101810.63
2022-11-10T10:58:24.419Z,101808.28
2022-11-10T11:01:16.174Z,101799.25
2022-11-10T11:04:06.778Z,101812.66
2022-11-10T11:07:00.892Z,101817.84
2022-11-10T11:09:46.072Z,101812.13
2022-11-10T11:12:33.862Z,101825.03
2022-11-10T11:15:25.678Z,101825.56
2022-11-10T11:18:17.372Z,101825.31
2022-11-10T11:21:09.968Z,101846.97
2022-11-10T11:24:06.986Z,101837.72
2022-11-10T11:26:59.477Z,101837.56
2022-11-10T11:30:03.536Z,101838.97
2022-11-10T11:33:02.633Z,101853.69
2022-11-10T11:35:57.394Z,101851.22
2022-11-10T11:38:56.102Z,101849.28
2022-11-10T11:42:06.573Z,101849.88
2022-11-10T11:45:20.713Z,101843.91
2022-11-10T11:48:24.644Z,101855.97
2022-11-10T11:51:35.958Z,101862.53
2022-11-10T11:54:51.046Z,101859.81
2022-11-10T11:57:44.888Z,101863.91
2022-11-10T12:00:40.901Z,101854.91
2022-11-10T12:03:58.165Z,101867.25
2022-11-10T12:06:50.312Z,101867.28
2022-11-10T12:09:46.973Z,101869.75
2022-11-10T12:12:49.532Z,101876.84
2022-11-10T12:15:56.021Z,101875.50
2022-11-10T12:18:58.214Z,101886.44
2022-11-10T12:21:51.379Z,101886.16
2022-11-10T12:24:51.092Z,101894.09
2022-11-10T12:27:49.440Z,101884.00
2022-11-10T12:30:35.736Z,101886.75
2022-11-10T12:33:45.693Z,101882.66
2022-11-10T12:36:32.450Z,101888.41
2022-11-10T12:39:22.959Z,101879.91
2022-11-10T12:42:16.718Z,101876.66
2022-11-10T12:45:06.055Z,101882.38
2022-11-10T12:47:53.243Z,101888.13
2022-11-10T12:50:59.105Z,101882.66
2022-11-10T12:53:45.781Z,101893.34
2022-11-10T12:56:38.000Z,101888.94
2022-11-10T12:59:33.733Z,101892.53
2022-11-10T13:02:30.073Z,101896.63
2022-11-10T13:05:15.056Z,101898.81
2022-11-10T13:08:13.512Z,101912.22
2022-11-10T13:11:06.619Z,101915.50
2022-11-10T13:13:59.461Z,101918.50
2022-11-10T13:16:49.545Z,101927.81
2022-11-10T13:19:34.576Z,101929.47
2022-11-10T13:22:40.840Z,101933.56
2022-11-10T13:25:38.078Z,101939.31
2022-11-10T13:28:48.349Z,101935.75
2022-11-10T13:31:33.157Z,101940.38
2022-11-10T13:34:17.861Z,101931.34
2022-11-10T13:37:24.198Z,101940.38
2022-11-10T13:40:18.222Z,101927.81
2022-11-10T13:43:03.309Z,101945.84
2022-11-10T13:45:48.718Z,101946.44
2022-11-10T13:49:01.165Z,101943.69
2022-11-10T13:52:06.586Z,101943.66
2022-11-10T13:55:02.916Z,101945.31
2022-11-10T13:58:03.008Z,101952.44
2022-11-10T14:00:50.570Z,101953.75
2022-11-10T14:03:53.244Z,101948.28
2022-11-10T14:06:49.997Z,101945.53
2022-11-10T14:09:41.776Z,101946.34
2022-11-10T14:12:35.482Z,101949.09
2022-11-10T14:15:29.861Z,101959.50
2022-11-10T14:18:22.522Z,101957.84
2022-11-10T14:21:12.195Z,101949.91
2022-11-10T14:24:04.326Z,101947.41
2022-11-10T14:26:56.610Z,101948.53
2022-11-10T14:29:42.325Z,101962.72
2022-11-10T14:32:27.607Z,101952.31
2022-11-10T14:35:25.707Z,101951.22
2022-11-10T14:38:22.004Z,101951.22
2022-11-10T14:41:16.491Z,101961.81
2022-11-10T14:44:05.373Z,101965.38
2022-11-10T14:46:50.826Z,101971.66
2022-11-10T14:49:35.870Z,101973.50
2022-11-10T14:52:22.194Z,101966.72
2022-11-10T14:55:13.961Z,101962.59
2022-11-10T14:58:12.413Z,101968.50
2022-11-10T15:00:58.771Z,101972.59
2022-11-10T15:03:44.239Z,101982.81
2022-11-10T15:06:30.403Z,101985.25
2022-11-10T15:09:29.732Z,101976.56
2022-11-10T15:12:29.457Z,101981.94
2022-11-10T15:15:19.045Z,101982.47
2022-11-10T15:18:04.188Z,101995.22
2022-11-10T15:21:00.758Z,101997.63
2022-11-10T15:24:01.669Z,101996.47
2022-11-10T15:26:47.443Z,101986.25
2022-11-10T15:29:33.623Z,101986.97
2022-11-10T15:32:21.332Z,101985.81
2022-11-10T15:35:31.545Z,101986.88
2022-11-10T15:38:20.691Z,101993.19
2022-11-10T15:41:15.847Z,101993.66
2022-11-10T15:44:21.342Z,101994.97
2022-11-10T15:47:10.282Z,101995.97
2022-11-10T15:49:55.409Z,102000.38
2022-11-10T15:52:40.878Z,102004.38
2022-11-10T15:55:26.004Z,102007.28
2022-11-10T15:58:18.609Z,102005.47
2022-11-10T16:01:04.094Z,102011.94
2022-11-10T16:03:49.485Z,102011.13
2022-11-10T16:06:34.834Z,102022.03
2022-11-10T16:09:20.275Z,102027.91
2022-11-10T16:12:05.619Z,102021.38
2022-11-10T16:14:53.078Z,102021.38
2022-11-10T16:17:38.316Z,102021.50
2022-11-10T16:20:23.420Z,102024.38
2022-11-10T16:23:09.281Z,102027.94
2022-11-10T16:25:56.129Z,102034.72
2022-11-10T16:28:44.115Z,102044.75
2022-11-10T16:31:30.237Z,102050.09
2022-11-10T16:34:15.446Z,102053.66
2022-11-10T16:37:01.132Z,102069.44
2022-11-10T16:39:46.307Z,102072.59
2022-11-10T16:42:31.665Z,102074.41
2022-11-10T16:45:22.331Z,102060.41
2022-11-10T16:48:07.654Z,102052.41
2022-11-10T16:50:55.551Z,102066.00
2022-11-10T16:53:41.669Z,102061.88
2022-11-10T16:56:27.312Z,102070.81
2022-11-10T16:59:13.547Z,102074.19
2022-11-10T17:01:58.984Z,102074.69
2022-11-10T17:04:44.056Z,102068.69
2022-11-10T17:07:29.741Z,102073.44
2022-11-10T17:10:17.004Z,102075.50
2022-11-10T17:13:03.074Z,102073.50
2022-11-10T17:15:48.515Z,102063.72
2022-11-10T17:18:35.213Z,102078.88
2022-11-10T17:21:21.574Z,102091.50
2022-11-10T17:24:08.236Z,102081.69
2022-11-10T17:26:53.443Z,102086.22
2022-11-10T17:29:38.577Z,102085.72
2022-11-10T17:32:43.108Z,102085.06
2022-11-10T17:35:28.774Z,102085.47
2022-11-10T17:38:21.013Z,102079.94
2022-11-10T17:41:09.236Z,102082.91
2022-11-10T17:43:54.414Z,102079.00
2022-11-10T17:46:39.888Z,102083.53
2022-11-10T17:49:24.935Z,102084.84
2022-11-10T17:52:18.227Z,102084.25
2022-11-10T17:55:03.426Z,102095.63
2022-11-10T17:57:49.062Z,102092.09
2022-11-10T18:00:33.926Z,102088.53
2022-11-10T18:03:21.591Z,102094.72
2022-11-10T18:06:07.479Z,102108.13
2022-11-10T18:08:52.752Z,102097.38
2022-11-10T18:11:38.402Z,102090.75
2022-11-10T18:14:23.400Z,102093.34
2022-11-10T18:17:09.116Z,102099.00
2022-11-10T18:19:54.118Z,102087.22
2022-11-10T18:22:40.181Z,102101.06
2022-11-10T18:25:25.189Z,102094.19
2022-11-10T18:28:13.858Z,102093.59
2022-11-10T18:31:05.366Z,102100.94
2022-11-10T18:33:53.543Z,102093.25
2022-11-10T18:36:38.748Z,102090.88
2022-11-10T18:39:23.960Z,102095.16
2022-11-10T18:42:10.255Z,102102.97
2022-11-10T18:44:55.408Z,102102.59
2022-11-10T18:47:40.436Z,102102.03
2022-11-10T18:50:25.470Z,102094.44
2022-11-10T18:53:10.564Z,102086.28
2022-11-10T18:55:56.257Z,102091.84
2022-11-10T18:58:42.047Z,102085.84
2022-11-10T19:01:27.614Z,102090.69
2022-11-10T19:04:13.649Z,102098.97
2022-11-10T19:06:58.604Z,102105.00
2022-11-10T19:09:44.309Z,102092.72
2022-11-10T19:12:30.898Z,102100.88
2022-11-10T19:15:15.939Z,102104.53
2022-11-10T19:18:04.403Z,102110.44
2022-11-10T19:20:49.725Z,102110.66
2022-11-10T19:23:34.909Z,102110.31
2022-11-10T19:26:22.772Z,102111.03
2022-11-10T19:29:08.577Z,102110.44
2022-11-10T19:31:53.562Z,102101.34
2022-11-10T19:34:38.672Z,102098.88
2022-11-10T19:37:23.623Z,102097.09
2022-11-10T19:40:09.684Z,102096.63
2022-11-10T19:42:54.846Z,102092.84
2022-11-10T19:45:41.089Z,102101.94
2022-11-10T19:48:26.398Z,102114.94
2022-11-10T19:51:13.965Z,102121.31
2022-11-10T19:54:01.554Z,102131.81
2022-11-10T19:56:46.813Z,102154.13
2022-11-10T19:59:32.525Z,102150.47
2022-11-10T20:02:17.565Z,102141.47
2022-11-10T20:05:18.125Z,102137.94
2022-11-10T20:08:11.313Z,102139.16
2022-11-10T20:11:01.820Z,102130.38
2022-11-10T20:13:55.018Z,102137.13
2022-11-10T20:16:40.548Z,102137.72
2022-11-10T20:19:25.812Z,102138.41
2022-11-10T20:22:12.769Z,102143.25
2022-11-10T20:24:58.127Z,102150.13
2022-11-10T20:27:43.153Z,102150.94
2022-11-10T20:30:28.187Z,102151.63
2022-11-10T20:33:13.227Z,102145.72
2022-11-10T20:36:14.759Z,102151.84
2022-11-10T20:39:02.684Z,102151.28
2022-11-10T20:41:48.212Z,102158.22
2022-11-10T20:44:33.758Z,102155.03
2022-11-10T20:47:19.261Z,102158.09
2022-11-10T20:50:11.514Z,102153.28
2022-11-10T20:52:59.447Z,102165.09
2022-11-10T20:55:53.404Z,102169.00
2022-11-10T20:58:39.619Z,102169.03
2022-11-10T21:01:24.715Z,102164.06
2022-11-10T21:04:10.895Z,102184.25
2022-11-10T21:06:56.116Z,102171.63
2022-11-10T21:09:41.336Z,102182.03
2022-11-10T21:12:44.850Z,102184.75
2022-11-10T21:15:29.979Z,102184.50
2022-11-10T21:18:14.841Z,102193.38
2022-11-10T21:21:00.227Z,102200.81
2022-11-10T21:23:45.228Z,102198.22
2022-11-10T21:26:31.633Z,102190.16
2022-11-10T21:29:16.746Z,102201.41
2022-11-10T21:32:01.921Z,102187.22
2022-11-10T21:34:47.206Z,102177.88
2022-11-10T21:37:32.582Z,102190.63
2022-11-10T21:40:17.857Z,102195.13
2022-11-10T21:43:03.605Z,102200.81
2022-11-10T21:45:48.794Z,102203.06
2022-11-10T21:48:34.926Z,102203.50
2022-11-10T21:51:21.026Z,102213.09
2022-11-10T21:54:06.502Z,102207.28
2022-11-10T21:56:51.390Z,102217.47
2022-11-10T21:59:36.325Z,102231.28
2022-11-10T22:02:21.296Z,102230.59
2022-11-10T22:05:06.602Z,102216.16
2022-11-10T22:07:51.745Z,102207.31
2022-11-10T22:10:55.702Z,102200.19
2022-11-10T22:13:59.364Z,102198.66
2022-11-10T22:17:05.460Z,102199.03
2022-11-10T22:19:50.429Z,102195.84
2022-11-10T22:22:35.573Z,102202.69
2022-11-10T22:25:20.701Z,102211.69
2022-11-10T22:28:06.687Z,102216.88
2022-11-10T22:30:51.589Z,102205.63
2022-11-10T22:33:38.722Z,102210.38
2022-11-10T22:36:23.615Z,102222.19
2022-11-10T22:39:09.119Z,102225.97
2022-11-10T22:42:12.686Z,102234.63
2022-11-10T22:44:57.979Z,102228.94
2022-11-10T22:48:03.352Z,102242.03
2022-11-10T22:50:55.717Z,102246.78
2022-11-10T22:53:41.285Z,102253.97
2022-11-10T22:56:26.301Z,102248.19
2022-11-10T22:59:12.033Z,102257.78
2022-11-10T23:01:57.204Z,102265.19
2022-11-10T23:04:42.099Z,102270.06
2022-11-10T23:07:28.469Z,102269.22
2022-11-10T23:10:13.926Z,102268.28
2022-11-10T23:12:59.054Z,102276.53
2022-11-10T23:15:46.379Z,102281.38
2022-11-10T23:18:31.928Z,102284.84
2022-11-10T23:21:19.236Z,102292.50
2022-11-10T23:24:04.504Z,102288.97
2022-11-10T23:26:49.365Z,102287.28
2022-11-10T23:29:34.222Z,102293.56
2022-11-10T23:32:19.469Z,102275.94
2022-11-10T23:35:05.247Z,102274.66
2022-11-10T23:37:50.660Z,102264.25
2022-11-10T23:40:35.855Z,102253.50
2022-11-10T23:43:21.308Z,102247.09
2022-11-10T23:46:08.124Z,102251.59
2022-11-10T23:48:53.576Z,102261.06
2022-11-10T23:51:38.933Z,102260.19
2022-11-10T23:54:23.806Z,102266.31
2022-11-10T23:57:08.996Z,102263.88
2022-11-10T23:59:54.089Z,102255.13
